createdAt,value
2023-01-27T00:00:12.047Z,17.40
2023-01-27T00:02:39.317Z,13.80
2023-01-27T00:05:06.530Z,15.40
2023-01-27T00:07:33.324Z,15.60
2023-01-27T00:09:59.993Z,17.10
2023-01-27T00:12:46.703Z,20.23
2023-01-27T00:15:13.955Z,18.30
2023-01-27T00:17:40.716Z,17.98
2023-01-27T00:20:08.017Z,15.77
2023-01-27T00:22:54.534Z,19.00
2023-01-27T00:25:21.288Z,16.88
2023-01-27T00:27:47.876Z,15.93
2023-01-27T00:30:14.787Z,19.67
2023-01-27T00:33:01.427Z,18.02
2023-01-27T00:35:28.218Z,19.33
2023-01-27T00:37:54.828Z,25.05
2023-01-27T00:40:21.457Z,21.65
2023-01-27T00:42:48.070Z,13.57
2023-01-27T00:45:34.632Z,18.23
2023-01-27T00:48:01.270Z,18.45
2023-01-27T00:50:27.971Z,15.77
2023-01-27T00:52:54.608Z,18.20
2023-01-27T00:55:21.243Z,16.55
2023-01-27T00:57:48.034Z,15.18
2023-01-27T01:00:15.811Z,15.85
2023-01-27T01:02:42.849Z,16.25
2023-01-27T01:05:09.777Z,16.08
2023-01-27T01:07:36.394Z,12.25
2023-01-27T01:10:03.239Z,17.02
2023-01-27T01:12:29.873Z,14.48
2023-01-27T01:14:56.564Z,11.35
2023-01-27T01:17:23.198Z,16.25
2023-01-27T01:19:49.786Z,13.70
2023-01-27T01:22:16.421Z,11.90
2023-01-27T01:24:43.004Z,12.63
2023-01-27T01:27:09.589Z,12.00
2023-01-27T01:29:36.171Z,15.50
2023-01-27T01:32:02.934Z,13.15
2023-01-27T01:34:29.543Z,9.85
2023-01-27T01:36:56.138Z,13.98
2023-01-27T01:39:22.936Z,14.70
2023-01-27T01:41:49.582Z,15.57
2023-01-27T01:44:31.795Z,15.05
2023-01-27T01:46:59.208Z,15.63
2023-01-27T01:49:32.683Z,12.65
2023-01-27T01:52:02.111Z,16.40
2023-01-27T01:54:30.302Z,15.57
2023-01-27T01:57:25.723Z,13.48
2023-01-27T01:59:54.498Z,18.15
2023-01-27T02:02:22.695Z,16.10
2023-01-27T02:04:57.796Z,13.05
2023-01-27T02:07:34.928Z,15.13
2023-01-27T02:10:01.567Z,13.05
2023-01-27T02:12:28.357Z,18.27
2023-01-27T02:14:54.937Z,14.65
2023-01-27T02:17:21.554Z,12.48
2023-01-27T02:20:09.470Z,13.57
2023-01-27T02:22:43.950Z,13.18
2023-01-27T02:25:38.163Z,11.57
2023-01-27T02:28:07.357Z,14.88
2023-01-27T02:30:34.403Z,14.98
2023-01-27T02:33:01.226Z,13.77
2023-01-27T02:35:34.145Z,13.20
2023-01-27T02:38:00.788Z,12.98
2023-01-27T02:40:27.563Z,15.93
2023-01-27T02:42:55.767Z,13.40
2023-01-27T02:45:22.345Z,17.88
2023-01-27T02:47:48.918Z,17.00
2023-01-27T02:50:16.452Z,13.85
2023-01-27T02:52:43.213Z,15.40
2023-01-27T02:55:10.245Z,18.40
2023-01-27T02:57:37.059Z,17.10
2023-01-27T03:00:04.534Z,16.13
2023-01-27T03:02:31.220Z,19.52
2023-01-27T03:04:58.018Z,19.38
2023-01-27T03:07:24.948Z,17.48
2023-01-27T03:09:51.603Z,23.55
2023-01-27T03:12:21.309Z,19.85
2023-01-27T03:15:08.672Z,16.27
2023-01-27T03:17:55.798Z,19.15
2023-01-27T03:20:22.641Z,17.63
2023-01-27T03:22:49.555Z,18.60
2023-01-27T03:25:16.375Z,22.88
2023-01-27T03:27:43.042Z,21.92
2023-01-27T03:30:10.242Z,23.15
2023-01-27T03:32:36.813Z,15.82
2023-01-27T03:35:03.936Z,14.30
2023-01-27T03:37:51.141Z,20.02
2023-01-27T03:40:37.754Z,17.67
2023-01-27T03:43:24.301Z,15.80
2023-01-27T03:46:11.259Z,22.65
2023-01-27T03:48:37.926Z,18.35
2023-01-27T03:51:05.714Z,15.85
2023-01-27T03:53:32.564Z,15.75
2023-01-27T03:55:59.195Z,16.48
2023-01-27T03:58:27.684Z,18.45
2023-01-27T04:00:58.974Z,19.98
2023-01-27T04:03:46.494Z,21.27
2023-01-27T04:06:34.876Z,18.45
2023-01-27T04:09:01.553Z,19.63
2023-01-27T04:11:48.142Z,16.65
2023-01-27T04:14:14.961Z,16.80
2023-01-27T04:16:41.672Z,19.75
2023-01-27T04:19:09.262Z,20.30
2023-01-27T04:21:35.981Z,21.70
2023-01-27T04:24:03.713Z,14.98
2023-01-27T04:26:34.429Z,24.00
2023-01-27T04:29:01.913Z,22.20
2023-01-27T04:31:28.588Z,25.15
2023-01-27T04:33:55.418Z,25.88
2023-01-27T04:36:22.029Z,15.05
2023-01-27T04:38:48.703Z,20.20
2023-01-27T04:41:15.527Z,20.23
2023-01-27T04:43:42.376Z,17.70
2023-01-27T04:46:09.661Z,16.73
2023-01-27T04:48:36.350Z,13.52
2023-01-27T04:51:02.971Z,15.25
2023-01-27T04:53:29.585Z,18.15
2023-01-27T04:56:02.089Z,14.43
2023-01-27T04:58:28.826Z,12.30
2023-01-27T05:00:55.480Z,11.70
2023-01-27T05:03:22.086Z,16.50
2023-01-27T05:05:48.707Z,14.50
2023-01-27T05:08:15.383Z,16.52
2023-01-27T05:10:44.902Z,15.45
2023-01-27T05:13:11.790Z,19.17
2023-01-27T05:15:38.404Z,17.75
2023-01-27T05:18:05.129Z,15.00
2023-01-27T05:20:32.026Z,14.80
2023-01-27T05:23:18.605Z,19.98
2023-01-27T05:25:45.277Z,16.13
2023-01-27T05:28:12.246Z,22.52
2023-01-27T05:30:38.924Z,14.90
2023-01-27T05:33:05.638Z,12.40
2023-01-27T05:35:33.434Z,12.43
2023-01-27T05:38:00.397Z,15.88
2023-01-27T05:40:27.227Z,24.48
2023-01-27T05:42:54.423Z,14.82
2023-01-27T05:45:21.107Z,16.23
2023-01-27T05:47:50.411Z,19.58
2023-01-27T05:50:17.303Z,14.60
2023-01-27T05:52:44.023Z,15.20
2023-01-27T05:55:11.062Z,16.20
2023-01-27T05:57:38.329Z,18.55
2023-01-27T06:00:05.661Z,19.70
2023-01-27T06:02:32.648Z,17.40
2023-01-27T06:04:59.267Z,20.23
2023-01-27T06:07:25.901Z,22.35
2023-01-27T06:09:52.755Z,20.33
2023-01-27T06:12:19.426Z,20.55
2023-01-27T06:14:46.057Z,23.77
2023-01-27T06:17:12.769Z,17.98
2023-01-27T06:19:39.392Z,16.92
2023-01-27T06:22:06.142Z,18.08
2023-01-27T06:24:32.996Z,15.45
2023-01-27T06:26:59.623Z,17.88
2023-01-27T06:29:26.289Z,10.40
2023-01-27T06:31:53.076Z,16.42
2023-01-27T06:34:19.755Z,19.40
2023-01-27T06:36:46.401Z,12.20
2023-01-27T06:39:13.141Z,21.23
2023-01-27T06:41:39.829Z,16.33
2023-01-27T06:44:06.506Z,18.60
2023-01-27T06:46:34.144Z,15.38
2023-01-27T06:49:00.828Z,17.27
2023-01-27T06:51:30.170Z,16.55
2023-01-27T06:53:56.991Z,20.77
2023-01-27T06:56:23.599Z,18.33
2023-01-27T06:58:50.239Z,35.78
2023-01-27T07:01:17.350Z,19.13
2023-01-27T07:03:45.061Z,19.52
2023-01-27T07:06:11.931Z,17.02
2023-01-27T07:08:38.521Z,20.83
2023-01-27T07:11:05.426Z,27.77
2023-01-27T07:13:32.073Z,17.20
2023-01-27T07:16:00.227Z,15.10
2023-01-27T07:18:26.886Z,19.48
2023-01-27T07:20:53.608Z,23.02
2023-01-27T07:23:20.249Z,20.35
2023-01-27T07:25:46.946Z,15.30
2023-01-27T07:28:13.578Z,24.67
2023-01-27T07:30:40.180Z,22.15
2023-01-27T07:33:07.939Z,19.10
2023-01-27T07:35:36.024Z,16.40
2023-01-27T07:38:02.674Z,18.48
2023-01-27T07:40:29.334Z,14.32
2023-01-27T07:42:59.800Z,16.17
2023-01-27T07:45:26.519Z,18.33
2023-01-27T07:47:53.163Z,16.50
2023-01-27T07:50:21.291Z,18.23
2023-01-27T07:52:47.972Z,17.52
2023-01-27T07:55:14.791Z,18.45
2023-01-27T07:57:41.538Z,19.00
2023-01-27T08:00:09.045Z,20.42
2023-01-27T08:02:35.645Z,20.25
2023-01-27T08:05:02.272Z,22.67
2023-01-27T08:07:28.929Z,23.63
2023-01-27T08:09:57.158Z,26.38
2023-01-27T08:12:23.796Z,25.90
2023-01-27T08:14:50.447Z,18.75
2023-01-27T08:17:17.093Z,24.70
2023-01-27T08:19:43.885Z,23.08
2023-01-27T08:22:10.539Z,17.45
2023-01-27T08:24:37.131Z,25.52
2023-01-27T08:27:05.789Z,20.02
2023-01-27T08:29:33.856Z,21.50
2023-01-27T08:32:00.455Z,17.30
2023-01-27T08:34:27.078Z,19.42
2023-01-27T08:36:53.686Z,14.23
2023-01-27T08:39:20.322Z,15.10
2023-01-27T08:41:46.888Z,18.77
2023-01-27T08:44:13.576Z,13.50
2023-01-27T08:46:40.193Z,15.80
2023-01-27T08:49:06.817Z,16.95
2023-01-27T08:51:33.511Z,14.57
2023-01-27T08:54:00.270Z,16.88
2023-01-27T08:56:27.009Z,16.00
2023-01-27T08:58:53.667Z,18.50
2023-01-27T09:01:20.483Z,15.00
2023-01-27T09:03:47.170Z,14.25
2023-01-27T09:06:13.817Z,15.82
2023-01-27T09:08:40.892Z,14.45
2023-01-27T09:11:10.540Z,21.55
2023-01-27T09:13:37.239Z,23.42
2023-01-27T09:16:04.235Z,15.82
2023-01-27T09:18:30.844Z,16.60
2023-01-27T09:20:57.483Z,14.57
2023-01-27T09:23:24.415Z,12.45
2023-01-27T09:25:51.002Z,16.35
2023-01-27T09:28:18.008Z,18.40
2023-01-27T09:30:46.326Z,16.98
2023-01-27T09:33:17.051Z,18.52
2023-01-27T09:35:46.816Z,20.17
2023-01-27T09:38:14.453Z,19.67
2023-01-27T09:41:06.922Z,14.38
2023-01-27T09:44:00.530Z,23.30
2023-01-27T09:46:59.783Z,19.27
2023-01-27T09:49:57.134Z,16.48
2023-01-27T09:56:05.276Z,19.27
2023-01-27T09:58:54.308Z,21.92
2023-01-27T10:01:32.374Z,19.23
2023-01-27T10:07:04.473Z,19.38
2023-01-27T10:12:59.022Z,17.80
2023-01-27T10:18:53.559Z,16.38
2023-01-27T10:21:37.880Z,15.50
2023-01-27T10:27:02.951Z,24.65
2023-01-27T10:29:36.048Z,18.17
2023-01-27T10:32:11.145Z,18.38
2023-01-27T10:34:42.908Z,21.45
2023-01-27T10:37:34.095Z,20.10
2023-01-27T10:40:06.249Z,18.17
2023-01-27T10:43:10.814Z,19.88
2023-01-27T10:45:39.740Z,16.05
2023-01-27T10:48:41.297Z,15.35
2023-01-27T10:51:26.451Z,16.17
2023-01-27T10:53:58.458Z,20.00
2023-01-27T10:56:46.120Z,18.67
2023-01-27T11:00:18.368Z,20.52
2023-01-27T11:02:45.711Z,21.98
2023-01-27T11:05:17.225Z,19.92
2023-01-27T11:07:47.567Z,12.50
2023-01-27T11:10:17.187Z,17.75
2023-01-27T11:12:47.162Z,19.55
2023-01-27T11:15:33.745Z,13.32
2023-01-27T11:18:23.561Z,13.70
2023-01-27T11:21:07.064Z,14.02
2023-01-27T11:23:38.787Z,16.13
2023-01-27T11:26:28.117Z,14.07
2023-01-27T11:32:12.137Z,13.18
2023-01-27T11:35:01.785Z,12.25
2023-01-27T11:40:18.346Z,16.88
2023-01-27T11:42:44.936Z,18.42
2023-01-27T11:45:15.661Z,14.32
2023-01-27T11:47:42.291Z,19.77
2023-01-27T11:50:14.805Z,17.30
2023-01-27T11:52:41.558Z,16.52
2023-01-27T11:55:28.523Z,16.35
2023-01-27T11:58:05.896Z,16.02
2023-01-27T12:00:37.902Z,19.27
2023-01-27T12:03:09.720Z,12.65
2023-01-27T12:05:38.251Z,19.15
2023-01-27T12:08:05.171Z,17.83
2023-01-27T12:10:34.103Z,18.08
2023-01-27T12:13:07.879Z,18.48
2023-01-27T12:15:34.649Z,18.60
2023-01-27T12:18:04.335Z,21.15
2023-01-27T12:20:49.196Z,15.57
2023-01-27T12:23:36.790Z,20.10
2023-01-27T12:26:05.126Z,18.73
2023-01-27T12:28:55.361Z,22.33
2023-01-27T12:31:27.896Z,16.73
2023-01-27T12:33:59.710Z,23.65
2023-01-27T12:36:28.118Z,19.70
2023-01-27T12:38:58.480Z,20.40
2023-01-27T12:41:27.624Z,15.73
2023-01-27T12:44:15.852Z,13.05
2023-01-27T12:47:01.435Z,18.77
2023-01-27T12:49:33.546Z,16.80
2023-01-27T12:52:02.546Z,16.67
2023-01-27T12:54:32.021Z,23.73
2023-01-27T12:57:04.286Z,20.52
2023-01-27T12:59:30.941Z,17.48
2023-01-27T13:02:19.071Z,19.02
2023-01-27T13:05:05.266Z,20.80
2023-01-27T13:07:41.573Z,18.35
2023-01-27T13:10:17.455Z,17.80
2023-01-27T13:12:54.482Z,16.33
2023-01-27T13:15:22.486Z,15.93
2023-01-27T13:17:50.310Z,16.02
2023-01-27T13:20:22.320Z,18.90
2023-01-27T13:22:53.493Z,24.55
2023-01-27T13:25:23.438Z,19.38
2023-01-27T13:27:50.938Z,20.58
2023-01-27T13:30:30.443Z,16.65
2023-01-27T13:33:01.159Z,17.80
2023-01-27T13:35:33.256Z,16.05
2023-01-27T13:38:19.450Z,27.92
2023-01-27T13:40:46.315Z,23.77
2023-01-27T13:43:19.831Z,20.08
2023-01-27T13:46:17.354Z,20.95
2023-01-27T13:48:54.859Z,24.73
2023-01-27T13:51:23.671Z,17.92
2023-01-27T13:54:01.022Z,19.60
2023-01-27T13:56:36.374Z,23.02
2023-01-27T13:59:27.594Z,25.17
2023-01-27T14:02:34.093Z,19.45
2023-01-27T14:05:38.496Z,22.05
2023-01-27T14:08:20.760Z,20.10
2023-01-27T14:19:30.669Z,17.92
2023-01-27T14:22:04.374Z,28.30
2023-01-27T14:24:46.431Z,24.73
2023-01-27T14:27:18.102Z,25.80
2023-01-27T14:30:07.894Z,21.95
2023-01-27T14:32:58.385Z,21.45
2023-01-27T14:35:45.824Z,25.98
2023-01-27T14:41:25.810Z,16.88
2023-01-27T14:44:06.467Z,23.52
2023-01-27T14:46:56.817Z,22.30
2023-01-27T14:52:30.645Z,22.90
2023-01-27T14:55:22.843Z,19.05
2023-01-27T14:58:12.946Z,18.38
2023-01-27T15:00:52.349Z,18.58
2023-01-27T15:03:49.751Z,20.52
2023-01-27T15:06:48.527Z,18.60
2023-01-27T15:09:40.321Z,18.73
2023-01-27T15:12:31.545Z,21.40
2023-01-27T15:15:39.635Z,17.98
2023-01-27T15:18:46.114Z,21.25
2023-01-27T15:24:43.644Z,22.30
2023-01-27T15:27:10.276Z,14.40
2023-01-27T15:29:36.917Z,15.82
2023-01-27T15:32:12.735Z,19.45
2023-01-27T15:34:39.486Z,16.80
2023-01-27T15:37:23.214Z,16.15
2023-01-27T15:42:50.331Z,15.40
2023-01-27T15:45:37.666Z,21.17
2023-01-27T15:48:12.736Z,21.67
2023-01-27T15:50:59.045Z,20.17
2023-01-27T15:53:33.992Z,18.65
2023-01-27T15:56:00.770Z,17.85
2023-01-27T15:58:46.085Z,21.50
2023-01-27T16:01:29.238Z,14.30
2023-01-27T16:04:17.753Z,17.58
2023-01-27T16:06:48.243Z,24.35
2023-01-27T16:09:30.892Z,18.98
2023-01-27T16:14:33.021Z,22.63
2023-01-27T16:17:20.859Z,16.52
2023-01-27T16:20:16.688Z,21.42
2023-01-27T16:22:43.400Z,19.25
2023-01-27T16:25:22.785Z,19.35
2023-01-27T16:27:55.891Z,17.88
2023-01-27T16:30:29.322Z,19.77
2023-01-27T16:33:04.462Z,22.25
2023-01-27T16:35:45.727Z,20.75
2023-01-27T16:38:26.107Z,20.02
2023-01-27T16:41:35.802Z,22.52
2023-01-27T16:44:14.648Z,21.05
2023-01-27T16:46:43.194Z,21.83
2023-01-27T16:49:16.408Z,21.13
2023-01-27T16:51:45.803Z,24.33
2023-01-27T16:54:19.267Z,22.80
2023-01-27T16:56:46.346Z,24.27
2023-01-27T16:59:19.006Z,22.45
2023-01-27T17:01:47.546Z,24.15
2023-01-27T17:04:20.349Z,27.75
2023-01-27T17:06:48.322Z,30.25
2023-01-27T17:09:32.015Z,27.85
2023-01-27T17:11:59.169Z,27.77
2023-01-27T17:14:31.830Z,28.38
2023-01-27T17:17:01.261Z,25.55
2023-01-27T17:19:30.239Z,30.33
2023-01-27T17:22:00.426Z,27.33
2023-01-27T17:24:30.201Z,21.17
2023-01-27T17:27:18.862Z,23.10
2023-01-27T17:29:45.811Z,24.92
2023-01-27T17:32:21.544Z,27.35
2023-01-27T17:34:50.662Z,24.55
2023-01-27T17:37:18.651Z,26.38
2023-01-27T17:39:45.658Z,25.23
2023-01-27T17:42:15.362Z,26.33
2023-01-27T17:44:42.045Z,21.20
2023-01-27T17:47:08.901Z,23.48
2023-01-27T17:49:35.479Z,23.40
2023-01-27T17:52:02.267Z,26.83
2023-01-27T17:54:32.524Z,20.65
2023-01-27T18:00:09.722Z,22.63
2023-01-27T18:02:43.381Z,23.23
2023-01-27T18:05:16.463Z,26.42
2023-01-27T18:07:43.177Z,26.95
2023-01-27T18:10:32.342Z,26.20
2023-01-27T18:13:21.180Z,28.75
2023-01-27T18:15:50.570Z,22.27
2023-01-27T18:18:33.463Z,25.33
2023-01-27T18:23:55.640Z,22.58
2023-01-27T18:26:27.206Z,25.42
2023-01-27T18:28:57.795Z,23.57
2023-01-27T18:31:29.669Z,24.17
2023-01-27T18:33:59.175Z,22.67
2023-01-27T18:36:29.325Z,27.55
2023-01-27T18:38:56.052Z,26.50
2023-01-27T18:41:27.073Z,23.33
2023-01-27T18:43:54.184Z,18.83
2023-01-27T18:46:20.836Z,21.30
2023-01-27T18:48:47.479Z,21.02
2023-01-27T18:51:15.183Z,24.65
2023-01-27T18:53:41.934Z,22.50
2023-01-27T18:56:08.959Z,24.27
2023-01-27T18:58:36.097Z,20.25
2023-01-27T19:01:03.032Z,26.00
2023-01-27T19:03:30.576Z,24.17
2023-01-27T19:05:57.246Z,23.38
2023-01-27T19:08:24.574Z,23.42
2023-01-27T19:10:51.355Z,24.83
2023-01-27T19:13:18.371Z,23.65
2023-01-27T19:15:50.004Z,23.80
2023-01-27T19:18:33.409Z,22.45
2023-01-27T19:21:00.483Z,26.10
2023-01-27T19:23:27.518Z,23.95
2023-01-27T19:25:55.858Z,18.98
2023-01-27T19:28:32.595Z,23.05
2023-01-27T19:30:59.960Z,25.33
2023-01-27T19:33:26.846Z,22.60
2023-01-27T19:35:55.302Z,26.27
2023-01-27T19:38:23.071Z,26.50
2023-01-27T19:40:49.741Z,27.25
2023-01-27T19:43:17.158Z,28.98
2023-01-27T19:45:44.689Z,32.58
2023-01-27T19:48:14.722Z,31.67
2023-01-27T19:50:41.707Z,31.00
2023-01-27T19:53:08.355Z,30.08
2023-01-27T19:55:35.026Z,33.75
2023-01-27T19:58:02.196Z,32.72
2023-01-27T20:00:34.751Z,32.42
2023-01-27T20:03:01.902Z,27.52
2023-01-27T20:05:29.603Z,34.45
2023-01-27T20:07:57.064Z,29.02
2023-01-27T20:10:32.524Z,28.55
2023-01-27T20:13:00.711Z,25.05
2023-01-27T20:15:28.683Z,26.42
2023-01-27T20:17:55.487Z,31.02
2023-01-27T20:20:22.646Z,21.88
2023-01-27T20:22:49.313Z,29.40
2023-01-27T20:25:17.760Z,29.25
2023-01-27T20:27:44.768Z,31.52
2023-01-27T20:30:15.349Z,29.92
2023-01-27T20:32:42.189Z,28.95
2023-01-27T20:35:08.888Z,27.75
2023-01-27T20:37:35.480Z,27.35
2023-01-27T20:40:02.102Z,24.92
2023-01-27T20:42:29.112Z,28.20
2023-01-27T20:44:55.765Z,22.95
2023-01-27T20:47:22.410Z,19.10
2023-01-27T20:49:49.020Z,27.23
2023-01-27T20:52:15.603Z,29.48
2023-01-27T20:54:42.252Z,18.48
2023-01-27T20:57:08.865Z,22.40
2023-01-27T20:59:35.515Z,27.77
2023-01-27T21:02:02.142Z,26.48
2023-01-27T21:04:28.786Z,19.58
2023-01-27T21:06:55.391Z,23.50
2023-01-27T21:09:22.131Z,22.02
2023-01-27T21:11:48.705Z,26.23
2023-01-27T21:14:15.279Z,21.67
2023-01-27T21:16:42.056Z,24.15
2023-01-27T21:19:09.511Z,21.40
2023-01-27T21:21:36.085Z,29.60
2023-01-27T21:24:03.105Z,22.13
2023-01-27T21:26:29.916Z,29.35
2023-01-27T21:28:57.010Z,28.00
2023-01-27T21:31:27.752Z,26.48
2023-01-27T21:33:54.452Z,22.02
2023-01-27T21:36:21.120Z,21.02
2023-01-27T21:38:50.205Z,27.40
2023-01-27T21:41:37.651Z,27.13
2023-01-27T21:44:24.642Z,23.17
2023-01-27T21:46:51.316Z,23.50
2023-01-27T21:49:18.034Z,24.55
2023-01-27T21:51:44.649Z,22.23
2023-01-27T21:54:11.359Z,19.20
2023-01-27T21:56:37.998Z,23.55
2023-01-27T21:59:04.686Z,24.83
2023-01-27T22:01:31.815Z,25.63
2023-01-27T22:03:58.607Z,24.05
2023-01-27T22:06:25.714Z,27.90
2023-01-27T22:08:52.375Z,30.20
2023-01-27T22:11:18.992Z,27.02
2023-01-27T22:13:45.676Z,24.52
2023-01-27T22:16:14.789Z,24.63
2023-01-27T22:18:41.904Z,28.60
2023-01-27T22:21:09.327Z,27.00
2023-01-27T22:23:36.002Z,29.58
2023-01-27T22:26:02.672Z,33.08
2023-01-27T22:28:30.046Z,27.50
2023-01-27T22:31:00.759Z,25.67
2023-01-27T22:33:27.360Z,27.10
2023-01-27T22:36:02.800Z,27.85
2023-01-27T22:38:29.498Z,26.08
2023-01-27T22:40:57.583Z,29.80
2023-01-27T22:43:24.334Z,27.52
2023-01-27T22:45:51.038Z,30.33
2023-01-27T22:48:17.734Z,28.60
2023-01-27T22:50:44.519Z,25.83
2023-01-27T22:53:11.433Z,34.40
2023-01-27T22:55:38.310Z,27.83
2023-01-27T22:58:05.009Z,23.95
2023-01-27T23:00:31.642Z,29.70
2023-01-27T23:02:58.266Z,27.27
2023-01-27T23:05:24.957Z,31.27
2023-01-27T23:07:51.599Z,26.20
2023-01-27T23:10:18.361Z,30.77
2023-01-27T23:12:44.957Z,32.63
2023-01-27T23:15:11.735Z,32.00
2023-01-27T23:17:38.365Z,35.78
2023-01-27T23:20:05.517Z,29.25
2023-01-27T23:22:32.355Z,31.77
2023-01-27T23:24:58.984Z,30.67
2023-01-27T23:27:26.287Z,28.08
2023-01-27T23:29:52.862Z,32.47
2023-01-27T23:32:19.455Z,32.35
2023-01-27T23:34:46.055Z,31.77
2023-01-27T23:37:12.656Z,31.85
2023-01-27T23:39:39.309Z,30.35
2023-01-27T23:42:06.153Z,29.15
2023-01-27T23:44:32.713Z,29.63
2023-01-27T23:46:59.306Z,32.80
2023-01-27T23:49:26.375Z,23.83
2023-01-27T23:51:52.992Z,32.58
2023-01-27T23:54:19.559Z,26.90
2023-01-27T23:56:46.196Z,26.95
2023-01-27T23:59:13.212Z,29.40
